sensor_id;sensor_type;location;lat;lon;timestamp;pressure;altitude;pressure_sealevel;temperature;humidity
64753;BME280;61095;52.454;16.948;2023-05-19T06:04:56;101696.97;;;16.53;46.03
64753;BME280;61095;52.454;16.948;2023-05-19T06:09:56;101694.59;;;16.46;46.65
64753;BME280;61095;52.454;16.948;2023-05-19T06:14:57;101703.25;;;16.28;46.71
64753;BME280;61095;52.454;16.948;2023-05-19T06:19:58;101704.84;;;16.07;47.21
64753;BME280;61095;52.454;16.948;2023-05-19T06:24:59;101703.59;;;15.90;47.77
64753;BME280;61095;52.454;16.948;2023-05-19T06:29:59;101706.16;;;15.93;47.62
64753;BME280;61095;52.454;16.948;2023-05-19T06:35:01;101703.25;;;16.01;47.47
64753;BME280;61095;52.454;16.948;2023-05-19T06:40:02;101712.88;;;16.05;47.34
64753;BME280;61095;52.454;16.948;2023-05-19T06:45:03;101709.44;;;16.02;47.23
64753;BME280;61095;52.454;16.948;2023-05-19T06:50:05;101716.13;;;15.87;47.38
64753;BME280;61095;52.454;16.948;2023-05-19T06:55:06;101720.16;;;15.72;47.86
64753;BME280;61095;52.454;16.948;2023-05-19T07:00:08;101718.03;;;15.55;48.54
64753;BME280;61095;52.454;16.948;2023-05-19T07:05:10;101722.00;;;15.42;48.93
64753;BME280;61095;52.454;16.948;2023-05-19T07:10:10;101718.38;;;15.45;49.40
64753;BME280;61095;52.454;16.948;2023-05-19T07:15:10;101723.84;;;15.40;49.37
64753;BME280;61095;52.454;16.948;2023-05-19T07:20:12;101725.00;;;15.59;48.88
64753;BME280;61095;52.454;16.948;2023-05-19T07:25:13;101723.56;;;15.49;48.80
64753;BME280;61095;52.454;16.948;2023-05-19T07:30:13;101719.34;;;15.42;49.59
64753;BME280;61095;52.454;16.948;2023-05-19T07:35:15;101716.88;;;15.64;48.75
64753;BME280;61095;52.454;16.948;2023-05-19T07:40:16;101704.09;;;15.47;49.25
64753;BME280;61095;52.454;16.948;2023-05-19T07:45:16;101705.13;;;15.43;49.38
64753;BME280;61095;52.454;16.948;2023-05-19T07:50:18;101711.84;;;15.55;49.15
64753;BME280;61095;52.454;16.948;2023-05-19T07:55:18;101711.19;;;15.75;48.74
64753;BME280;61095;52.454;16.948;2023-05-19T08:00:19;101702.34;;;15.74;48.53
64753;BME280;61095;52.454;16.948;2023-05-19T08:05:21;101699.72;;;15.46;49.31
64753;BME280;61095;52.454;16.948;2023-05-19T08:10:21;101702.94;;;15.56;49.35
64753;BME280;61095;52.454;16.948;2023-05-19T08:15:22;101698.25;;;15.64;49.71
64753;BME280;61095;52.454;16.948;2023-05-19T08:20:23;101697.00;;;15.74;49.36
64753;BME280;61095;52.454;16.948;2023-05-19T08:25:24;101700.22;;;15.85;49.00
64753;BME280;61095;52.454;16.948;2023-05-19T08:30:24;101689.84;;;16.04;49.24
64753;BME280;61095;52.454;16.948;2023-05-19T08:35:26;101698.91;;;15.71;50.18
64753;BME280;61095;52.454;16.948;2023-05-19T08:40:26;101689.38;;;15.91;50.02
64753;BME280;61095;52.454;16.948;2023-05-19T08:45:27;101684.03;;;15.91;50.37
64753;BME280;61095;52.454;16.948;2023-05-19T08:50:30;101677.78;;;15.92;50.06
64753;BME280;61095;52.454;16.948;2023-05-19T08:55:40;101686.41;;;16.26;49.54
64753;BME280;61095;52.454;16.948;2023-05-19T09:00:43;101672.59;;;16.64;49.24
64753;BME280;61095;52.454;16.948;2023-05-19T09:05:45;101682.56;;;17.07;48.45
64753;BME280;61095;52.454;16.948;2023-05-19T09:10:45;101681.25;;;17.17;47.52
64753;BME280;61095;52.454;16.948;2023-05-19T09:15:46;101687.63;;;16.90;47.88
64753;BME280;61095;52.454;16.948;2023-05-19T09:20:48;101689.16;;;16.72;48.34
64753;BME280;61095;52.454;16.948;2023-05-19T09:25:50;101688.34;;;16.70;48.44
64753;BME280;61095;52.454;16.948;2023-05-19T09:30:58;101672.22;;;16.75;47.88
64753;BME280;61095;52.454;16.948;2023-05-19T09:36:00;101699.34;;;16.61;47.52
64753;BME280;61095;52.454;16.948;2023-05-19T09:41:01;101688.78;;;16.35;48.10
64753;BME280;61095;52.454;16.948;2023-05-19T09:46:03;101691.16;;;16.42;47.89
64753;BME280;61095;52.454;16.948;2023-05-19T09:51:07;101693.34;;;16.56;48.19
64753;BME280;61095;52.454;16.948;2023-05-19T09:56:07;101677.06;;;16.64;47.84
64753;BME280;61095;52.454;16.948;2023-05-19T10:01:08;101689.44;;;16.41;48.02
64753;BME280;61095;52.454;16.948;2023-05-19T10:06:10;101681.88;;;16.54;47.61
64753;BME280;61095;52.454;16.948;2023-05-19T10:11:10;101681.09;;;16.50;47.96
64753;BME280;61095;52.454;16.948;2023-05-19T10:16:12;101687.22;;;16.29;48.22
64753;BME280;61095;52.454;16.948;2023-05-19T10:21:15;101672.44;;;16.19;48.38
64753;BME280;61095;52.454;16.948;2023-05-19T10:26:16;101675.06;;;16.20;47.73
64753;BME280;61095;52.454;16.948;2023-05-19T10:31:24;101672.34;;;16.22;48.21
64753;BME280;61095;52.454;16.948;2023-05-19T10:36:38;101678.94;;;16.37;47.99
64753;BME280;61095;52.454;16.948;2023-05-19T10:41:46;101693.03;;;16.40;48.30
64753;BME280;61095;52.454;16.948;2023-05-19T10:46:48;101686.59;;;16.21;47.86
64753;BME280;61095;52.454;16.948;2023-05-19T10:51:54;101672.56;;;16.16;47.74
64753;BME280;61095;52.454;16.948;2023-05-19T10:56:55;101672.63;;;16.14;47.96
64753;BME280;61095;52.454;16.948;2023-05-19T11:01:56;101682.94;;;16.23;47.86
64753;BME280;61095;52.454;16.948;2023-05-19T11:07:03;101671.91;;;16.09;47.97
64753;BME280;61095;52.454;16.948;2023-05-19T11:12:04;101668.81;;;16.21;48.44
64753;BME280;61095;52.454;16.948;2023-05-19T11:17:12;101673.31;;;16.19;49.08
64753;BME280;61095;52.454;16.948;2023-05-19T11:22:14;101664.41;;;16.20;49.30
64753;BME280;61095;52.454;16.948;2023-05-19T11:27:23;101676.88;;;15.93;49.84
64753;BME280;61095;52.454;16.948;2023-05-19T11:32:27;101679.03;;;15.82;49.57
64753;BME280;61095;52.454;16.948;2023-05-19T11:37:31;101662.19;;;16.08;48.99
64753;BME280;61095;52.454;16.948;2023-05-19T11:42:32;101668.97;;;16.17;49.27
64753;BME280;61095;52.454;16.948;2023-05-19T11:47:32;101660.34;;;16.35;49.01
64753;BME280;61095;52.454;16.948;2023-05-19T11:52:34;101666.84;;;16.28;49.04
64753;BME280;61095;52.454;16.948;2023-05-19T11:57:34;101657.69;;;16.10;49.63
64753;BME280;61095;52.454;16.948;2023-05-19T12:02:35;101672.72;;;16.11;49.37
64753;BME280;61095;52.454;16.948;2023-05-19T12:07:36;101682.94;;;16.23;49.37
64753;BME280;61095;52.454;16.948;2023-05-19T12:12:37;101659.75;;;16.02;50.05
64753;BME280;61095;52.454;16.948;2023-05-19T12:17:37;101687.34;;;16.49;49.25
64753;BME280;61095;52.454;16.948;2023-05-19T12:22:39;101670.19;;;16.33;49.54
64753;BME280;61095;52.454;16.948;2023-05-19T12:27:42;101673.34;;;16.44;49.04
64753;BME280;61095;52.454;16.948;2023-05-19T12:32:42;101662.50;;;16.49;49.22
64753;BME280;61095;52.454;16.948;2023-05-19T12:37:44;101660.31;;;16.37;49.15
64753;BME280;61095;52.454;16.948;2023-05-19T12:42:44;101655.19;;;16.31;49.44
64753;BME280;61095;52.454;16.948;2023-05-19T12:47:47;101661.22;;;16.36;48.95
64753;BME280;61095;52.454;16.948;2023-05-19T12:52:49;101657.47;;;16.16;49.97
64753;BME280;61095;52.454;16.948;2023-05-19T12:57:51;101662.28;;;16.05;50.31
64753;BME280;61095;52.454;16.948;2023-05-19T13:02:56;101654.84;;;16.15;49.82
64753;BME280;61095;52.454;16.948;2023-05-19T13:07:59;101649.19;;;15.99;50.73
64753;BME280;61095;52.454;16.948;2023-05-19T13:13:00;101658.50;;;15.86;49.21
64753;BME280;61095;52.454;16.948;2023-05-19T13:18:02;101655.94;;;16.09;48.80
64753;BME280;61095;52.454;16.948;2023-05-19T13:23:05;101680.44;;;15.92;49.29
64753;BME280;61095;52.454;16.948;2023-05-19T13:28:05;101668.00;;;15.93;49.96
64753;BME280;61095;52.454;16.948;2023-05-19T13:33:06;101653.44;;;16.05;49.81
64753;BME280;61095;52.454;16.948;2023-05-19T13:38:10;101660.94;;;15.92;49.94
64753;BME280;61095;52.454;16.948;2023-05-19T13:43:10;101648.44;;;15.68;51.21
64753;BME280;61095;52.454;16.948;2023-05-19T13:48:10;101649.38;;;15.93;51.09
64753;BME280;61095;52.454;16.948;2023-05-19T13:53:12;101658.19;;;15.95;51.50
64753;BME280;61095;52.454;16.948;2023-05-19T13:58:13;101650.34;;;15.90;51.97
64753;BME280;61095;52.454;16.948;2023-05-19T14:03:13;101639.53;;;15.95;51.73
64753;BME280;61095;52.454;16.948;2023-05-19T14:08:15;101642.25;;;15.67;52.32
64753;BME280;61095;52.454;16.948;2023-05-19T14:13:15;101648.41;;;15.69;52.58
64753;BME280;61095;52.454;16.948;2023-05-19T14:18:16;101643.50;;;15.83;52.59
64753;BME280;61095;52.454;16.948;2023-05-19T14:23:18;101643.50;;;15.57;53.80
64753;BME280;61095;52.454;16.948;2023-05-19T14:28:19;101654.78;;;15.37;54.00
64753;BME280;61095;52.454;16.948;2023-05-19T14:33:19;101650.50;;;15.33;54.79
64753;BME280;61095;52.454;16.948;2023-05-19T14:38:21;101651.25;;;15.37;54.50
64753;BME280;61095;52.454;16.948;2023-05-19T14:43:21;101643.22;;;15.38;53.64
64753;BME280;61095;52.454;16.948;2023-05-19T14:48:22;101643.78;;;15.48;53.51
64753;BME280;61095;52.454;16.948;2023-05-19T14:53:23;101645.53;;;15.21;54.11
64753;BME280;61095;52.454;16.948;2023-05-19T14:58:24;101648.00;;;15.27;53.89
64753;BME280;61095;52.454;16.948;2023-05-19T15:03:24;101668.06;;;15.65;54.04
64753;BME280;61095;52.454;16.948;2023-05-19T15:08:26;101673.53;;;15.33;54.05
64753;BME280;61095;52.454;16.948;2023-05-19T15:13:26;101671.41;;;15.44;54.08
64753;BME280;61095;52.454;16.948;2023-05-19T15:18:27;101676.47;;;15.23;54.96
64753;BME280;61095;52.454;16.948;2023-05-19T15:23:28;101661.53;;;15.19;54.42
64753;BME280;61095;52.454;16.948;2023-05-19T15:28:29;101657.81;;;15.25;54.95
64753;BME280;61095;52.454;16.948;2023-05-19T15:33:29;101655.50;;;15.14;55.87
64753;BME280;61095;52.454;16.948;2023-05-19T15:38:34;101652.25;;;15.33;55.41
64753;BME280;61095;52.454;16.948;2023-05-19T15:43:34;101662.69;;;15.11;56.27
64753;BME280;61095;52.454;16.948;2023-05-19T15:48:35;101655.00;;;15.29;55.75
64753;BME280;61095;52.454;16.948;2023-05-19T15:53:36;101643.59;;;14.98;57.12
64753;BME280;61095;52.454;16.948;2023-05-19T15:58:37;101652.69;;;15.19;56.81
64753;BME280;61095;52.454;16.948;2023-05-19T16:03:37;101650.06;;;15.17;56.64
64753;BME280;61095;52.454;16.948;2023-05-19T16:08:39;101665.69;;;15.28;56.41
64753;BME280;61095;52.454;16.948;2023-05-19T16:13:39;101654.91;;;15.05;57.05
64753;BME280;61095;52.454;16.948;2023-05-19T16:18:40;101653.84;;;15.10;56.69
64753;BME280;61095;52.454;16.948;2023-05-19T16:23:41;101654.69;;;14.81;57.55
64753;BME280;61095;52.454;16.948;2023-05-19T16:28:42;101642.88;;;14.91;57.15
64753;BME280;61095;52.454;16.948;2023-05-19T16:33:42;101647.38;;;14.89;57.16
64753;BME280;61095;52.454;16.948;2023-05-19T16:38:44;101644.53;;;14.97;57.32
64753;BME280;61095;52.454;16.948;2023-05-19T16:43:45;101656.66;;;14.75;57.95
64753;BME280;61095;52.454;16.948;2023-05-19T16:48:45;101646.34;;;14.64;58.08
64753;BME280;61095;52.454;16.948;2023-05-19T16:53:47;101637.72;;;14.87;57.72
64753;BME280;61095;52.454;16.948;2023-05-19T16:58:47;101640.34;;;14.57;58.66
64753;BME280;61095;52.454;16.948;2023-05-19T17:03:48;101639.09;;;14.69;58.41
64753;BME280;61095;52.454;16.948;2023-05-19T17:08:50;101633.88;;;14.97;57.38
64753;BME280;61095;52.454;16.948;2023-05-19T17:13:53;101643.81;;;14.59;58.63
64753;BME280;61095;52.454;16.948;2023-05-19T17:18:53;101631.59;;;14.83;57.97
64753;BME280;61095;52.454;16.948;2023-05-19T17:23:55;101638.75;;;14.81;58.12
64753;BME280;61095;52.454;16.948;2023-05-19T17:28:56;101624.44;;;14.87;57.73
64753;BME280;61095;52.454;16.948;2023-05-19T17:33:56;101626.13;;;14.89;57.76
64753;BME280;61095;52.454;16.948;2023-05-19T17:38:58;101631.78;;;14.77;58.31
64753;BME280;61095;52.454;16.948;2023-05-19T17:43:58;101622.25;;;14.70;58.90
64753;BME280;61095;52.454;16.948;2023-05-19T17:48:59;101629.94;;;14.50;59.27
64753;BME280;61095;52.454;16.948;2023-05-19T17:54:01;101628.06;;;14.83;58.44
64753;BME280;61095;52.454;16.948;2023-05-19T17:59:02;101622.94;;;14.77;58.78
64753;BME280;61095;52.454;16.948;2023-05-19T18:04:03;101628.97;;;14.52;59.37
64753;BME280;61095;52.454;16.948;2023-05-19T18:09:06;101635.47;;;14.42;59.51
64753;BME280;61095;52.454;16.948;2023-05-19T18:14:07;101646.38;;;14.62;59.04
64753;BME280;61095;52.454;16.948;2023-05-19T18:19:07;101643.19;;;14.51;59.35
64753;BME280;61095;52.454;16.948;2023-05-19T18:24:09;101651.63;;;14.33;59.85
64753;BME280;61095;52.454;16.948;2023-05-19T18:29:12;101655.16;;;14.33;60.47
64753;BME280;61095;52.454;16.948;2023-05-19T18:34:13;101656.16;;;14.29;60.56
64753;BME280;61095;52.454;16.948;2023-05-19T18:39:14;101651.69;;;14.31;60.59
64753;BME280;61095;52.454;16.948;2023-05-19T18:44:15;101648.56;;;14.48;60.29
64753;BME280;61095;52.454;16.948;2023-05-19T18:49:15;101652.94;;;14.51;59.95
64753;BME280;61095;52.454;16.948;2023-05-19T18:54:17;101650.69;;;14.66;59.79
64753;BME280;61095;52.454;16.948;2023-05-19T18:59:17;101657.19;;;14.56;59.81
64753;BME280;61095;52.454;16.948;2023-05-19T19:04:18;101654.81;;;14.77;59.49
64753;BME280;61095;52.454;16.948;2023-05-19T19:09:20;101651.66;;;14.64;60.04
64753;BME280;61095;52.454;16.948;2023-05-19T19:14:21;101651.66;;;14.64;60.12
64753;BME280;61095;52.454;16.948;2023-05-19T19:19:21;101653.22;;;14.71;59.84
64753;BME280;61095;52.454;16.948;2023-05-19T19:24:24;101652.84;;;14.83;59.41
64753;BME280;61095;52.454;16.948;2023-05-19T19:29:24;101656.09;;;14.63;60.41
64753;BME280;61095;52.454;16.948;2023-05-19T19:34:25;101651.56;;;14.67;60.03
64753;BME280;61095;52.454;16.948;2023-05-19T19:39:27;101661.19;;;14.71;60.12
64753;BME280;61095;52.454;16.948;2023-05-19T19:44:27;101661.91;;;14.47;60.63
64753;BME280;61095;52.454;16.948;2023-05-19T19:49:28;101661.81;;;14.50;60.81
64753;BME280;61095;52.454;16.948;2023-05-19T19:54:29;101666.47;;;14.73;59.89
64753;BME280;61095;52.454;16.948;2023-05-19T19:59:30;101662.41;;;14.90;59.32
64753;BME280;61095;52.454;16.948;2023-05-19T20:04:30;101660.91;;;14.80;59.90
64753;BME280;61095;52.454;16.948;2023-05-19T20:09:32;101668.28;;;14.71;59.89
64753;BME280;61095;52.454;16.948;2023-05-19T20:14:32;101674.66;;;14.65;60.15
64753;BME280;61095;52.454;16.948;2023-05-19T20:19:33;101671.44;;;14.54;60.39
64753;BME280;61095;52.454;16.948;2023-05-19T20:24:35;101672.41;;;14.51;60.34
64753;BME280;61095;52.454;16.948;2023-05-19T20:29:35;101676.56;;;14.60;60.69
64753;BME280;61095;52.454;16.948;2023-05-19T20:34:35;101678.72;;;14.47;60.47
64753;BME280;61095;52.454;16.948;2023-05-19T20:39:37;101685.72;;;14.50;60.81
64753;BME280;61095;52.454;16.948;2023-05-19T20:44:38;101675.28;;;14.10;62.26
64753;BME280;61095;52.454;16.948;2023-05-19T20:49:38;101676.19;;;14.43;61.10
64753;BME280;61095;52.454;16.948;2023-05-19T20:54:40;101675.41;;;14.38;61.32
64753;BME280;61095;52.454;16.948;2023-05-19T20:59:40;101674.53;;;14.37;61.74
64753;BME280;61095;52.454;16.948;2023-05-19T21:04:41;101677.88;;;14.45;61.42
64753;BME280;61095;52.454;16.948;2023-05-19T21:09:42;101681.81;;;14.30;61.84
64753;BME280;61095;52.454;16.948;2023-05-19T21:14:43;101671.88;;;14.37;61.34
64753;BME280;61095;52.454;16.948;2023-05-19T21:19:43;101669.09;;;14.43;61.34
64753;BME280;61095;52.454;16.948;2023-05-19T21:24:45;101676.53;;;14.29;61.93
64753;BME280;61095;52.454;16.948;2023-05-19T21:29:45;101681.50;;;14.43;61.72
64753;BME280;61095;52.454;16.948;2023-05-19T21:34:46;101687.63;;;14.45;61.63
64753;BME280;61095;52.454;16.948;2023-05-19T21:39:48;101684.06;;;14.46;61.79
64753;BME280;61095;52.454;16.948;2023-05-19T21:44:48;101688.41;;;14.48;61.77
64753;BME280;61095;52.454;16.948;2023-05-19T21:49:48;101692.00;;;14.47;61.88
64753;BME280;61095;52.454;16.948;2023-05-19T21:54:50;101680.22;;;14.56;61.28
64753;BME280;61095;52.454;16.948;2023-05-19T21:59:51;101685.22;;;14.66;61.26
